Time;durP1;ratioP1;P1;durP2;ratioP2;P2;SDS_P1;SDS_P2;PMS_P1;PMS_P2;Temp;Humidity;BMP_temperature;BMP_pressure;BME280_temperature;BME280_humidity;BME280_pressure;Samples;Min_cycle;Max_cycle;Signal;HPM_P1;HPM_P2
2022/04/08 00:02:03;;;;;;;2.67;0.80;;;9.30;95.60;;;;;;4959483;28;20482;-87
2022/04/08 00:04:30;;;;;;;4.57;0.93;;;9.30;95.40;;;;;;4966002;28;20496;-87
2022/04/08 00:06:56;;;;;;;4.50;0.90;;;9.30;95.30;;;;;;4963175;28;20073;-87
2022/04/08 00:09:22;;;;;;;3.30;0.90;;;9.30;95.10;;;;;;4963068;28;20027;-87
2022/04/08 00:11:48;;;;;;;6.57;1.45;;;9.20;94.80;;;;;;4963088;28;20031;-86
2022/04/08 00:14:13;;;;;;;4.47;1.08;;;9.30;95.00;;;;;;4966067;28;20030;-86
2022/04/08 00:16:39;;;;;;;3.50;0.80;;;9.20;95.30;;;;;;4982023;28;20018;-88
2022/04/08 00:19:05;;;;;;;6.07;1.20;;;9.20;95.00;;;;;;4982236;28;20027;-87
2022/04/08 00:21:31;;;;;;;4.40;0.93;;;9.20;94.90;;;;;;4981566;28;20514;-86
2022/04/08 00:23:56;;;;;;;2.65;0.85;;;9.20;95.10;;;;;;4982097;28;20026;-87
2022/04/08 00:26:22;;;;;;;3.47;0.95;;;9.20;95.20;;;;;;4982075;28;20484;-86
2022/04/08 00:28:48;;;;;;;2.28;0.77;;;9.10;94.90;;;;;;4982097;28;20030;-86
2022/04/08 00:31:13;;;;;;;2.85;0.80;;;9.10;94.90;;;;;;4982457;28;20076;-86
2022/04/08 00:33:39;;;;;;;3.88;0.82;;;9.10;94.80;;;;;;4981662;28;20030;-88
2022/04/08 00:36:05;;;;;;;3.20;0.88;;;9.10;94.80;;;;;;4981831;28;20077;-86
2022/04/08 00:38:30;;;;;;;3.63;1.00;;;9.10;95.00;;;;;;4981991;28;20023;-87
2022/04/08 00:40:56;;;;;;;3.90;0.95;;;9.10;95.10;;;;;;4982251;28;20073;-86
2022/04/08 00:43:33;;;;;;;4.93;1.13;;;9.00;94.70;;;;;;4981750;28;20135;-86
2022/04/08 00:45:59;;;;;;;2.53;0.80;;;9.00;94.70;;;;;;4981464;28;20027;-88
2022/04/08 00:48:25;;;;;;;4.80;0.90;;;9.00;94.40;;;;;;4981818;28;20093;-87
2022/04/08 00:50:51;;;;;;;4.95;1.10;;;8.90;94.40;;;;;;4981340;28;20085;-85
2022/04/08 00:53:16;;;;;;;4.15;0.90;;;9.00;94.30;;;;;;4981176;28;20026;-87
2022/04/08 00:55:42;;;;;;;2.92;0.80;;;8.90;94.10;;;;;;4981711;28;20022;-86
2022/04/08 00:58:07;;;;;;;3.20;0.80;;;8.90;93.80;;;;;;4981432;28;20018;-86
2022/04/08 01:00:35;;;;;;;5.03;1.00;;;8.90;94.00;;;;;;4981403;28;20077;-86
2022/04/08 01:03:01;;;;;;;3.65;0.80;;;8.80;93.70;;;;;;4981493;28;20494;-85
2022/04/08 01:05:27;;;;;;;2.72;0.90;;;8.90;93.80;;;;;;4981077;28;20045;-86
2022/04/08 01:07:57;;;;;;;5.88;1.00;;;8.80;93.80;;;;;;4981534;28;20026;-87
2022/04/08 01:10:22;;;;;;;6.03;1.55;;;8.80;93.70;;;;;;4982435;28;20026;-88
2022/04/08 01:12:49;;;;;;;3.83;0.77;;;8.80;93.80;;;;;;4981980;28;20085;-89
2022/04/08 01:15:16;;;;;;;6.20;1.23;;;8.80;93.20;;;;;;4980477;28;20384;-87
2022/04/08 01:17:42;;;;;;;6.55;0.85;;;8.80;93.10;;;;;;4980782;28;20022;-87
2022/04/08 01:20:08;;;;;;;5.05;1.10;;;8.70;93.10;;;;;;4981793;28;20117;-86
2022/04/08 01:22:35;;;;;;;2.53;0.88;;;8.70;92.90;;;;;;4981228;28;20034;-87
2022/04/08 01:25:04;;;;;;;2.97;0.90;;;8.70;93.10;;;;;;4981334;28;20026;-86
2022/04/08 01:27:30;;;;;;;5.38;1.08;;;8.70;92.70;;;;;;4980928;28;20535;-88
2022/04/08 01:29:56;;;;;;;6.00;1.00;;;8.70;93.00;;;;;;4981042;28;20030;-85
2022/04/08 01:32:22;;;;;;;9.13;1.08;;;8.70;92.90;;;;;;4981247;28;20421;-86
2022/04/08 01:34:49;;;;;;;4.43;0.90;;;8.70;92.90;;;;;;4975677;28;20393;-87
2022/04/08 01:37:18;;;;;;;5.07;1.30;;;8.70;93.10;;;;;;4961461;28;20051;-86
2022/04/08 01:39:44;;;;;;;4.28;1.00;;;8.70;93.10;;;;;;4961748;28;20023;-87
2022/04/08 01:42:10;;;;;;;5.00;1.10;;;8.70;93.20;;;;;;4961688;28;20054;-86
2022/04/08 01:44:36;;;;;;;5.35;1.20;;;8.70;92.90;;;;;;4961152;28;20027;-89
2022/04/08 01:54:47;;;;;;;2.95;0.90;;;8.60;93.40;;;;;;4924938;29;20044;-85
2022/04/08 01:57:12;;;;;;;1.95;0.75;;;8.60;93.50;;;;;;4918471;29;20501;-86
2022/04/08 01:59:39;;;;;;;4.95;1.00;;;8.60;93.70;;;;;;4919228;29;20035;-87
2022/04/08 02:02:07;;;;;;;6.50;0.90;;;8.60;93.60;;;;;;4924241;29;20028;-86
2022/04/08 02:04:35;;;;;;;4.63;1.13;;;8.60;94.10;;;;;;4933790;29;20034;-86
2022/04/08 02:07:02;;;;;;;4.50;1.02;;;8.60;94.10;;;;;;4918503;29;20397;-86
2022/04/08 02:09:27;;;;;;;3.45;1.45;;;8.50;94.10;;;;;;4931765;29;20623;-86
2022/04/08 02:11:53;;;;;;;6.45;1.02;;;8.50;94.30;;;;;;4936991;29;20067;-86
2022/04/08 02:14:19;;;;;;;8.15;1.98;;;8.50;94.40;;;;;;4932762;29;20276;-86
2022/04/08 02:16:44;;;;;;;3.72;1.17;;;8.50;94.60;;;;;;4946412;28;20106;-85
2022/04/08 02:19:10;;;;;;;3.75;1.17;;;8.50;94.70;;;;;;4953070;28;20028;-86
2022/04/08 02:21:36;;;;;;;3.88;1.10;;;8.50;94.80;;;;;;4955156;29;20028;-86
2022/04/08 02:24:03;;;;;;;3.45;1.08;;;8.50;94.80;;;;;;4936874;29;20027;-86
2022/04/08 02:26:29;;;;;;;1.92;1.02;;;8.40;95.00;;;;;;4929088;29;20034;-85
2022/04/08 02:28:54;;;;;;;3.90;0.70;;;8.40;95.10;;;;;;4952416;28;20373;-85
2022/04/08 02:31:20;;;;;;;6.15;0.80;;;8.40;95.00;;;;;;4937774;28;20023;-85
2022/04/08 02:33:45;;;;;;;3.53;1.05;;;8.40;94.90;;;;;;4937502;29;20089;-86
2022/04/08 02:36:11;;;;;;;3.90;0.80;;;8.40;94.90;;;;;;4938965;29;20050;-85
2022/04/08 02:38:37;;;;;;;5.10;0.95;;;8.40;94.80;;;;;;4921061;29;20135;-86
2022/04/08 02:41:02;;;;;;;5.35;1.02;;;8.40;94.80;;;;;;4947209;28;20054;-86
2022/04/08 02:43:28;;;;;;;6.68;1.00;;;8.40;94.70;;;;;;4928577;29;20023;-86
2022/04/08 02:45:53;;;;;;;3.42;0.90;;;8.40;94.70;;;;;;4928915;29;20032;-86
2022/04/08 02:48:19;;;;;;;7.70;1.55;;;8.30;94.60;;;;;;4954848;28;20471;-86
2022/04/08 02:50:45;;;;;;;5.40;1.17;;;8.30;94.30;;;;;;4953141;29;20376;-87
2022/04/08 02:53:11;;;;;;;3.35;0.98;;;8.30;94.30;;;;;;4937166;29;20073;-87
2022/04/08 02:55:36;;;;;;;3.35;0.98;;;8.30;94.20;;;;;;4953992;28;20042;-87
2022/04/08 02:58:02;;;;;;;4.55;1.20;;;8.30;94.30;;;;;;4942544;29;20038;-87
2022/04/08 03:00:28;;;;;;;4.05;1.00;;;8.30;94.40;;;;;;4919736;29;20028;-86
2022/04/08 03:02:54;;;;;;;6.35;1.02;;;8.30;94.60;;;;;;4947252;28;20346;-87
2022/04/08 03:05:19;;;;;;;5.00;1.15;;;8.30;94.50;;;;;;4935514;29;20085;-86
2022/04/08 03:07:45;;;;;;;4.07;1.05;;;8.30;94.60;;;;;;4947453;29;20024;-87
2022/04/08 03:10:12;;;;;;;4.53;0.98;;;8.20;94.60;;;;;;4934367;29;20444;-86
2022/04/08 03:12:38;;;;;;;3.00;1.30;;;8.20;94.50;;;;;;4953525;28;20495;-85
2022/04/08 03:15:05;;;;;;;4.10;1.13;;;8.20;94.50;;;;;;4942442;29;20043;-86
2022/04/08 03:17:30;;;;;;;4.45;1.33;;;8.20;94.60;;;;;;4929266;29;20015;-86
2022/04/08 03:19:57;;;;;;;2.67;1.00;;;8.20;94.50;;;;;;4929123;29;20038;-86
2022/04/08 03:22:24;;;;;;;2.42;0.80;;;8.20;94.80;;;;;;4922622;29;20113;-86
2022/04/08 03:24:51;;;;;;;4.88;1.10;;;8.10;94.80;;;;;;4927179;29;20576;-86
2022/04/08 03:27:17;;;;;;;4.85;0.98;;;8.10;94.90;;;;;;4927497;29;20035;-86
2022/04/08 03:29:43;;;;;;;2.47;0.80;;;8.10;94.90;;;;;;4944587;29;20058;-87
2022/04/08 03:32:10;;;;;;;4.90;1.20;;;8.00;94.90;;;;;;4952348;28;20053;-86
2022/04/08 03:34:36;;;;;;;8.40;1.60;;;8.10;95.10;;;;;;4934762;29;20110;-86
2022/04/08 03:37:02;;;;;;;4.57;1.27;;;8.10;95.20;;;;;;4935418;29;20250;-87
2022/04/08 03:39:27;;;;;;;4.55;1.17;;;8.00;95.30;;;;;;4952703;29;20106;-86
2022/04/08 03:41:55;;;;;;;5.13;1.20;;;8.00;95.30;;;;;;4951536;28;20034;-87
2022/04/08 03:44:21;;;;;;;6.15;1.23;;;8.10;95.20;;;;;;4920839;29;20032;-86
2022/04/08 03:46:47;;;;;;;3.08;1.02;;;8.00;95.30;;;;;;4924978;29;20425;-86
2022/04/08 03:49:14;;;;;;;5.97;1.17;;;8.00;95.40;;;;;;4943673;29;20498;-86
2022/04/08 03:51:46;;;;;;;4.45;1.02;;;8.00;95.40;;;;;;4938796;29;20076;-84
2022/04/08 03:54:13;;;;;;;7.43;1.30;;;8.00;95.50;;;;;;4943438;29;20103;-85
2022/04/08 03:56:42;;;;;;;5.35;1.25;;;8.10;95.50;;;;;;4953901;29;20020;-84
2022/04/08 03:59:08;;;;;;;5.78;1.42;;;8.10;95.60;;;;;;4961255;29;20023;-84
2022/04/08 04:01:34;;;;;;;7.18;1.30;;;8.00;95.70;;;;;;4942620;29;20032;-86
2022/04/08 04:04:00;;;;;;;6.53;1.10;;;8.10;95.80;;;;;;4931616;29;20035;-85
2022/04/08 04:06:25;;;;;;;5.25;1.00;;;8.00;95.70;;;;;;4950950;29;20478;-86
2022/04/08 04:08:51;;;;;;;2.25;0.98;;;8.00;95.70;;;;;;4940362;29;20035;-86
2022/04/08 04:11:16;;;;;;;7.65;1.20;;;8.00;95.80;;;;;;4932840;29;20028;-86
2022/04/08 04:13:43;;;;;;;4.05;0.90;;;8.00;95.90;;;;;;4929109;29;20496;-86
2022/04/08 04:16:08;;;;;;;5.00;1.20;;;8.00;96.00;;;;;;4953253;28;20028;-87
2022/04/08 04:18:34;;;;;;;5.13;1.20;;;8.00;95.80;;;;;;4956343;29;20019;-86
2022/04/08 04:21:00;;;;;;;5.45;1.10;;;8.00;95.90;;;;;;4931971;28;20019;-86
2022/04/08 04:23:25;;;;;;;5.72;1.42;;;8.00;96.00;;;;;;4940064;29;20031;-86
2022/04/08 04:25:51;;;;;;;4.07;1.90;;;7.90;96.10;;;;;;4957836;29;20034;-87
2022/04/08 04:28:17;;;;;;;5.50;1.17;;;7.90;96.20;;;;;;4941296;29;20020;-86
2022/04/08 04:30:42;;;;;;;4.35;1.38;;;7.90;96.40;;;;;;4936284;28;20024;-84
2022/04/08 04:33:08;;;;;;;4.32;1.13;;;7.90;96.50;;;;;;4959649;28;20015;-84
2022/04/08 04:35:35;;;;;;;7.07;1.30;;;7.90;96.70;;;;;;4957677;28;20027;-84
2022/04/08 04:38:00;;;;;;;3.90;1.08;;;7.90;96.60;;;;;;4957202;28;20030;-86
2022/04/08 04:40:26;;;;;;;5.18;1.13;;;7.90;96.60;;;;;;4946441;28;20023;-87
2022/04/08 04:42:52;;;;;;;6.30;1.20;;;7.90;96.80;;;;;;4937027;29;20035;-87
2022/04/08 04:45:18;;;;;;;4.47;1.00;;;7.90;96.80;;;;;;4932860;29;20046;-86
2022/04/08 04:47:44;;;;;;;7.00;1.17;;;7.90;96.90;;;;;;4928789;29;20051;-86
2022/04/08 04:50:09;;;;;;;2.88;1.25;;;7.90;96.90;;;;;;4937580;29;20039;-86
2022/04/08 04:52:35;;;;;;;5.38;1.23;;;7.90;97.00;;;;;;4935908;29;20055;-86
2022/04/08 04:55:02;;;;;;;5.40;1.10;;;7.80;97.10;;;;;;4939766;29;20429;-86
2022/04/08 04:57:27;;;;;;;2.88;1.00;;;7.80;97.10;;;;;;4939267;29;20019;-86
2022/04/08 04:59:53;;;;;;;3.63;1.02;;;7.90;97.20;;;;;;4953396;28;20031;-86
2022/04/08 05:02:18;;;;;;;3.60;1.00;;;7.90;97.30;;;;;;4947576;28;20062;-88
2022/04/08 05:04:44;;;;;;;3.72;1.13;;;7.90;97.30;;;;;;4953749;29;20027;-85
2022/04/08 05:07:10;;;;;;;4.55;1.10;;;7.90;97.40;;;;;;4937735;29;20361;-86
2022/04/08 05:09:38;;;;;;;4.38;1.48;;;7.90;97.30;;;;;;4936117;29;20023;-86
2022/04/08 05:12:05;;;;;;;3.28;1.00;;;7.90;97.40;;;;;;4936763;29;20375;-85
2022/04/08 05:14:30;;;;;;;7.97;1.17;;;7.90;97.40;;;;;;4938052;29;20023;-85
2022/04/08 05:16:58;;;;;;;6.05;1.15;;;7.90;97.50;;;;;;4937583;29;20105;-85
2022/04/08 05:19:24;;;;;;;7.80;1.70;;;7.90;97.50;;;;;;4956162;29;20111;-86
2022/04/08 05:21:49;;;;;;;5.63;1.40;;;7.90;97.50;;;;;;4925020;29;20059;-85
2022/04/08 05:24:15;;;;;;;5.78;1.15;;;7.90;97.50;;;;;;4920787;29;20039;-85
2022/04/08 05:26:41;;;;;;;7.25;1.55;;;7.90;97.50;;;;;;4953723;28;20082;-86
2022/04/08 05:29:06;;;;;;;5.10;1.15;;;7.90;97.40;;;;;;4935531;29;22272;-86
2022/04/08 05:31:32;;;;;;;4.78;1.38;;;7.90;97.50;;;;;;4950791;29;20034;-87
2022/04/08 05:33:57;;;;;;;6.38;1.50;;;7.90;97.60;;;;;;4933223;29;20063;-86
2022/04/08 05:36:23;;;;;;;7.75;1.48;;;7.90;97.70;;;;;;4939190;29;20035;-86
2022/04/08 05:38:49;;;;;;;6.18;1.92;;;7.90;97.70;;;;;;4926575;29;20030;-85
2022/04/08 05:41:14;;;;;;;3.38;1.30;;;7.90;97.70;;;;;;4955260;29;20027;-86
2022/04/08 05:43:44;;;;;;;5.50;1.60;;;8.00;98.00;;;;;;4950953;29;20020;-85
2022/04/08 05:46:13;;;;;;;5.93;1.40;;;8.00;97.80;;;;;;4937333;29;20506;-86
2022/04/08 05:48:39;;;;;;;10.05;1.67;;;8.00;97.80;;;;;;4937076;29;20031;-87
2022/04/08 05:51:05;;;;;;;10.40;2.15;;;8.00;97.80;;;;;;4926488;29;20027;-87
2022/04/08 05:53:30;;;;;;;10.35;1.83;;;8.00;97.70;;;;;;4932065;29;20035;-87
2022/04/08 05:56:02;;;;;;;4.93;1.40;;;8.00;97.70;;;;;;4926473;29;20115;-87
2022/04/08 05:58:28;;;;;;;12.00;2.33;;;8.10;97.70;;;;;;4931989;29;20023;-87
2022/04/08 06:00:53;;;;;;;6.55;1.75;;;8.10;97.60;;;;;;4931539;29;20027;-88
2022/04/08 06:03:19;;;;;;;8.15;1.98;;;8.10;97.60;;;;;;4936828;29;20445;-87
2022/04/08 06:05:45;;;;;;;5.00;1.50;;;8.10;97.50;;;;;;4952969;29;20075;-87
2022/04/08 06:08:10;;;;;;;6.97;1.73;;;8.10;97.60;;;;;;4941760;29;20103;-86
2022/04/08 06:10:36;;;;;;;5.78;1.60;;;8.10;97.70;;;;;;4934790;29;20500;-85
2022/04/08 06:13:02;;;;;;;9.38;1.63;;;8.10;97.60;;;;;;4953722;29;20035;-85
2022/04/08 06:15:28;;;;;;;7.35;1.50;;;8.20;97.50;;;;;;4950491;28;20043;-84
2022/04/08 06:17:57;;;;;;;4.80;1.40;;;8.20;97.70;;;;;;4932888;29;20031;-86
2022/04/08 06:20:24;;;;;;;6.72;1.48;;;8.30;97.50;;;;;;4952132;28;20420;-86
2022/04/08 06:22:50;;;;;;;5.65;1.20;;;8.30;97.40;;;;;;4927225;29;20023;-87
2022/04/08 06:25:18;;;;;;;6.32;1.10;;;8.40;97.50;;;;;;4923551;29;20030;-86
2022/04/08 06:27:44;;;;;;;7.65;1.90;;;8.50;97.40;;;;;;4936453;29;20130;-84
2022/04/08 06:30:11;;;;;;;9.30;1.52;;;8.50;97.40;;;;;;4925993;29;20436;-84
2022/04/08 06:32:40;;;;;;;11.52;1.60;;;8.50;97.40;;;;;;4919692;29;20499;-88
2022/04/08 06:35:06;;;;;;;5.53;1.50;;;8.50;97.40;;;;;;4932623;28;20071;-87
2022/04/08 06:37:32;;;;;;;3.65;1.38;;;8.50;97.60;;;;;;4934740;29;20039;-87
2022/04/08 06:40:03;;;;;;;5.97;1.60;;;8.60;97.70;;;;;;4937395;29;20111;-87
2022/04/08 06:42:29;;;;;;;4.53;1.30;;;8.60;97.50;;;;;;4932320;29;20026;-86
2022/04/08 06:44:54;;;;;;;8.05;2.03;;;8.60;97.50;;;;;;4918198;29;20039;-85
2022/04/08 06:47:20;;;;;;;14.38;2.20;;;8.60;97.50;;;;;;4925575;29;20019;-86
2022/04/08 06:49:46;;;;;;;6.40;1.30;;;8.60;97.50;;;;;;4950891;29;20032;-87
2022/04/08 06:52:13;;;;;;;5.68;1.77;;;8.60;97.50;;;;;;4953369;28;20062;-87
2022/04/08 06:54:39;;;;;;;4.63;1.20;;;8.60;97.50;;;;;;4936990;29;20403;-87
2022/04/08 06:57:05;;;;;;;7.40;2.28;;;8.60;97.70;;;;;;4937564;29;20117;-87
2022/04/08 06:59:30;;;;;;;4.90;1.50;;;8.70;97.70;;;;;;4954337;29;20054;-87
2022/04/08 07:01:56;;;;;;;6.60;1.40;;;8.70;97.70;;;;;;4954174;28;20035;-87
2022/04/08 07:04:21;;;;;;;6.53;1.80;;;8.70;97.70;;;;;;4936337;29;20035;-86
2022/04/08 07:06:47;;;;;;;10.13;1.85;;;8.70;97.70;;;;;;4938002;29;20123;-86
2022/04/08 07:09:13;;;;;;;5.78;1.42;;;8.60;97.60;;;;;;4937817;29;20054;-87
2022/04/08 07:11:39;;;;;;;2.60;1.10;;;8.60;97.80;;;;;;4937942;29;20082;-88
2022/04/08 07:14:04;;;;;;;10.02;1.40;;;8.70;98.00;;;;;;4937005;28;20031;-87
2022/04/08 07:16:30;;;;;;;5.45;1.40;;;8.70;98.00;;;;;;4953965;28;20025;-87
2022/04/08 07:18:56;;;;;;;12.75;1.80;;;8.70;97.90;;;;;;4920279;29;20028;-87
2022/04/08 07:21:22;;;;;;;5.90;1.40;;;8.70;98.00;;;;;;4939021;28;20031;-86
2022/04/08 07:23:48;;;;;;;5.90;1.27;;;8.60;98.00;;;;;;4948002;29;20056;-87
2022/04/08 07:26:14;;;;;;;8.07;1.55;;;8.70;98.00;;;;;;4937005;29;20051;-87
2022/04/08 07:28:40;;;;;;;9.63;1.90;;;8.70;98.10;;;;;;4937494;29;20122;-86
2022/04/08 07:31:06;;;;;;;5.03;1.10;;;8.70;98.20;;;;;;4937343;28;20055;-87
2022/04/08 07:33:31;;;;;;;6.07;1.98;;;8.70;98.20;;;;;;4954439;28;20030;-86
2022/04/08 07:35:58;;;;;;;7.93;1.48;;;8.70;98.30;;;;;;4936570;29;20034;-86
2022/04/08 07:38:25;;;;;;;5.93;1.35;;;8.80;98.40;;;;;;4937478;29;20031;-87
2022/04/08 07:40:50;;;;;;;7.18;1.27;;;8.80;98.40;;;;;;4937079;28;20436;-86
2022/04/08 07:43:17;;;;;;;3.55;0.95;;;8.80;98.50;;;;;;4936606;29;20061;-86
2022/04/08 07:45:43;;;;;;;4.93;1.20;;;8.80;98.30;;;;;;4935993;29;20027;-86
2022/04/08 07:48:09;;;;;;;4.18;1.13;;;8.70;98.30;;;;;;4936452;29;20027;-87
2022/04/08 07:50:37;;;;;;;7.03;1.27;;;8.70;98.20;;;;;;4973360;23;20095;-86
2022/04/08 07:53:03;;;;;;;5.53;1.40;;;8.70;98.30;;;;;;4943900;28;20111;-85
2022/04/08 07:55:29;;;;;;;6.72;1.15;;;8.70;98.50;;;;;;4967044;28;20031;-86
2022/04/08 07:57:55;;;;;;;2.13;0.82;;;8.70;98.50;;;;;;4975477;28;20112;-88
2022/04/08 08:00:25;;;;;;;3.60;1.35;;;8.70;98.50;;;;;;4975171;28;20027;-85
2022/04/08 08:03:15;;;;;;;3.03;1.00;;;8.60;98.50;;;;;;4978527;28;20030;-86
2022/04/08 08:05:40;;;;;;;5.13;1.52;;;8.60;98.60;;;;;;4979496;28;20110;-85
2022/04/08 08:08:06;;;;;;;2.72;0.93;;;8.50;98.60;;;;;;4960814;28;20506;-86
2022/04/08 08:10:37;;;;;;;2.50;1.00;;;8.50;98.50;;;;;;4960658;28;20130;-87
2022/04/08 08:13:03;;;;;;;4.63;1.17;;;8.40;98.30;;;;;;4977133;28;20505;-87
2022/04/08 08:15:30;;;;;;;3.55;1.40;;;8.30;98.70;;;;;;4959721;28;20027;-86
2022/04/08 08:17:57;;;;;;;3.45;1.30;;;8.20;98.80;;;;;;4981969;28;20033;-84
2022/04/08 08:20:24;;;;;;;2.92;1.08;;;8.10;98.80;;;;;;4973177;28;20034;-87
2022/04/08 08:22:50;;;;;;;4.20;1.75;;;8.00;99.00;;;;;;4979991;28;20054;-86
2022/04/08 08:25:17;;;;;;;5.32;1.35;;;8.00;99.30;;;;;;4962744;28;20031;-89
2022/04/08 08:27:52;;;;;;;4.32;1.17;;;8.00;99.60;;;;;;4966688;28;20125;-84
2022/04/08 08:30:19;;;;;;;3.10;1.00;;;8.00;99.80;;;;;;4963679;28;20030;-85
2022/04/08 08:33:00;;;;;;;2.35;1.00;;;8.10;99.90;;;;;;4974467;28;20023;-87
2022/04/08 08:35:26;;;;;;;3.33;1.08;;;8.00;99.90;;;;;;4956777;28;20409;-86
2022/04/08 08:37:52;;;;;;;3.65;0.90;;;7.90;99.90;;;;;;4962647;28;20129;-85
2022/04/08 08:40:18;;;;;;;3.70;1.25;;;7.90;99.90;;;;;;4979965;28;20054;-86
2022/04/08 08:42:45;;;;;;;4.28;1.02;;;7.80;99.90;;;;;;4981094;28;20485;-87
2022/04/08 08:45:12;;;;;;;3.10;1.10;;;7.80;99.90;;;;;;4983041;28;20026;-87
2022/04/08 08:47:38;;;;;;;4.32;0.95;;;7.80;99.90;;;;;;4964622;28;20023;-85
2022/04/08 08:50:06;;;;;;;3.70;1.10;;;7.80;99.90;;;;;;4955979;28;20115;-85
2022/04/08 08:52:32;;;;;;;1.63;0.82;;;7.80;99.90;;;;;;4963766;28;20053;-85
2022/04/08 08:54:59;;;;;;;3.55;0.90;;;7.80;99.90;;;;;;4965461;28;20502;-84
2022/04/08 08:57:25;;;;;;;1.80;1.15;;;7.80;99.90;;;;;;4948237;28;20061;-87
2022/04/08 08:59:52;;;;;;;3.42;1.23;;;7.70;99.90;;;;;;4983225;28;20026;-85
2022/04/08 09:02:21;;;;;;;7.25;1.30;;;7.60;99.90;;;;;;4963099;28;20077;-87
2022/04/08 09:04:51;;;;;;;5.90;1.40;;;7.70;99.90;;;;;;4962240;28;20027;-86
2022/04/08 09:07:30;;;;;;;2.97;1.27;;;7.70;99.90;;;;;;4962048;28;20058;-86
2022/04/08 09:09:57;;;;;;;4.78;1.58;;;7.60;99.90;;;;;;4960049;29;20038;-86
2022/04/08 09:12:25;;;;;;;3.22;1.17;;;7.50;99.90;;;;;;4960424;29;20024;-85
2022/04/08 09:14:56;;;;;;;3.53;1.40;;;7.50;99.90;;;;;;4942798;29;20034;-86
2022/04/08 09:17:25;;;;;;;2.55;1.23;;;7.50;99.90;;;;;;4943098;29;20027;-86
2022/04/08 09:19:52;;;;;;;5.57;1.40;;;7.50;99.90;;;;;;4969104;28;20034;-86
2022/04/08 09:22:20;;;;;;;1.85;1.13;;;7.50;99.90;;;;;;4959789;29;20019;-87
2022/04/08 09:24:45;;;;;;;2.95;1.10;;;7.50;99.90;;;;;;4959727;28;20023;-86
2022/04/08 09:27:11;;;;;;;3.15;1.30;;;7.50;99.90;;;;;;4958379;29;20026;-86
2022/04/08 09:29:37;;;;;;;1.95;1.20;;;7.60;99.90;;;;;;4973293;28;20035;-85
2022/04/08 09:32:15;;;;;;;2.22;1.15;;;7.60;99.90;;;;;;4978648;28;20392;-85
2022/04/08 09:34:42;;;;;;;3.67;1.23;;;7.60;99.90;;;;;;4961625;28;20370;-86
2022/04/08 09:37:13;;;;;;;1.33;1.00;;;7.70;99.90;;;;;;4960868;28;20034;-85
2022/04/08 09:40:03;;;;;;;1.38;0.90;;;7.70;99.90;;;;;;4959778;28;20015;-86
2022/04/08 09:42:43;;;;;;;2.95;1.58;;;7.70;99.90;;;;;;4960977;28;20026;-87
2022/04/08 09:45:09;;;;;;;5.85;1.30;;;7.70;99.90;;;;;;4977662;28;20054;-86
2022/04/08 09:47:36;;;;;;;3.78;1.20;;;7.80;99.90;;;;;;4960997;28;20049;-86
2022/04/08 09:50:02;;;;;;;1.75;1.10;;;7.80;99.90;;;;;;4960807;28;20064;-88
2022/04/08 09:52:28;;;;;;;1.98;0.93;;;7.90;99.90;;;;;;4960684;28;20390;-87
2022/04/08 09:54:57;;;;;;;2.83;1.05;;;7.90;99.90;;;;;;4960360;28;20496;-87
2022/04/08 09:57:22;;;;;;;2.20;1.00;;;7.80;99.90;;;;;;4952312;28;20031;-86
2022/04/08 09:59:55;;;;;;;2.33;1.10;;;7.80;99.90;;;;;;4955195;28;20030;-87
2022/04/08 10:02:24;;;;;;;1.92;1.20;;;7.80;99.90;;;;;;4954204;29;20019;-87
2022/04/08 10:04:50;;;;;;;1.10;1.00;;;7.80;99.90;;;;;;4939931;29;20053;-88
2022/04/08 10:07:17;;;;;;;1.58;0.90;;;7.70;99.90;;;;;;4954956;28;20027;-88
2022/04/08 10:10:00;;;;;;;1.63;0.98;;;7.60;99.90;;;;;;4958982;28;20023;-87
2022/04/08 10:12:40;;;;;;;1.70;1.10;;;7.50;99.90;;;;;;4974668;28;20079;-86
2022/04/08 10:15:11;;;;;;;1.35;0.80;;;7.40;99.90;;;;;;4978951;28;20037;-85
2022/04/08 10:17:37;;;;;;;2.20;1.10;;;7.40;99.90;;;;;;4958058;29;20035;-87
2022/04/08 10:20:20;;;;;;;3.25;0.90;;;7.30;99.90;;;;;;4947356;28;20671;-86
2022/04/08 10:22:46;;;;;;;2.28;1.10;;;7.30;99.90;;;;;;4949932;29;20474;-89
2022/04/08 10:25:40;;;;;;;0.93;0.85;;;7.20;99.90;;;;;;4940240;29;20031;-88
2022/04/08 10:28:06;;;;;;;1.48;0.98;;;7.20;99.90;;;;;;4954808;28;20035;-88
2022/04/08 10:30:42;;;;;;;0.60;0.60;;;7.20;99.90;;;;;;4961422;28;20565;-87
2022/04/08 10:33:08;;;;;;;1.15;0.60;;;7.10;99.90;;;;;;4947154;28;20062;-87
2022/04/08 10:35:54;;;;;;;0.82;0.60;;;7.00;99.90;;;;;;4955592;28;20445;-88
2022/04/08 10:38:25;;;;;;;2.78;0.70;;;7.00;99.90;;;;;;4958377;28;20023;-87
2022/04/08 10:40:53;;;;;;;0.93;0.60;;;6.90;99.90;;;;;;4949380;28;20493;-87
2022/04/08 10:43:19;;;;;;;0.57;0.50;;;6.80;99.90;;;;;;4943164;28;20458;-87
2022/04/08 10:45:56;;;;;;;1.83;1.58;;;6.80;99.90;;;;;;4971767;28;20098;-88
2022/04/08 10:48:34;;;;;;;1.20;0.80;;;6.70;99.90;;;;;;4969723;28;20078;-87
2022/04/08 10:51:14;;;;;;;1.30;0.80;;;6.80;99.90;;;;;;4957974;28;20035;-87
2022/04/08 10:53:42;;;;;;;0.63;0.63;;;6.80;99.90;;;;;;4952807;28;20035;-87
2022/04/08 10:56:12;;;;;;;0.65;0.65;;;6.90;99.90;;;;;;4952649;28;20114;-87
2022/04/08 10:58:49;;;;;;;1.13;0.90;;;6.90;99.90;;;;;;4954160;29;20022;-89
2022/04/08 11:01:25;;;;;;;0.77;0.77;;;6.90;99.90;;;;;;4939194;29;20029;-86
2022/04/08 11:04:00;;;;;;;0.95;0.52;;;6.90;99.90;;;;;;4949195;28;20026;-88
2022/04/08 11:06:45;;;;;;;1.25;0.90;;;7.00;99.90;;;;;;4958287;28;20393;-87
2022/04/08 11:09:12;;;;;;;1.10;0.75;;;7.10;99.90;;;;;;4969914;28;20129;-87
2022/04/08 11:11:40;;;;;;;0.50;0.50;;;7.10;99.90;;;;;;4957933;28;20031;-86
2022/04/08 11:14:06;;;;;;;0.70;0.70;;;7.10;99.90;;;;;;4952372;28;20035;-85
2022/04/08 11:16:34;;;;;;;0.80;0.60;;;7.00;99.90;;;;;;4947485;28;20134;-88
2022/04/08 11:19:02;;;;;;;0.50;0.50;;;7.00;99.90;;;;;;4954955;28;20401;-87
2022/04/08 11:21:28;;;;;;;0.65;0.65;;;6.90;99.90;;;;;;4950101;28;20015;-88
2022/04/08 11:23:59;;;;;;;0.50;0.40;;;6.90;99.90;;;;;;4957885;28;20504;-85
2022/04/08 11:26:27;;;;;;;0.50;0.50;;;6.90;99.90;;;;;;4946929;29;20030;-88
2022/04/08 11:28:54;;;;;;;0.60;0.60;;;6.80;99.90;;;;;;4939781;28;20350;-90
2022/04/08 11:31:19;;;;;;;1.45;0.80;;;6.90;99.90;;;;;;4972731;28;20047;-90
2022/04/08 11:33:45;;;;;;;2.97;1.10;;;6.90;99.90;;;;;;4940827;29;20054;-88
2022/04/08 11:36:11;;;;;;;1.40;1.30;;;6.80;99.90;;;;;;4938514;28;20117;-88
2022/04/08 11:38:36;;;;;;;1.50;0.95;;;6.80;99.90;;;;;;4955596;28;20027;-87
2022/04/08 11:41:04;;;;;;;5.32;3.05;;;6.80;99.90;;;;;;4951161;28;20022;-87
2022/04/08 11:43:30;;;;;;;0.75;0.60;;;6.80;99.90;;;;;;4974155;28;20022;-88
2022/04/08 11:45:55;;;;;;;1.50;1.17;;;6.80;99.90;;;;;;4941736;28;20042;-88
2022/04/08 11:48:23;;;;;;;0.60;0.60;;;6.80;99.90;;;;;;4956554;28;20077;-88
2022/04/08 11:50:50;;;;;;;1.10;0.70;;;6.80;99.90;;;;;;4964125;28;20524;-87
2022/04/08 11:53:21;;;;;;;1.75;1.52;;;6.80;99.90;;;;;;4956149;28;20023;-88
2022/04/08 11:56:04;;;;;;;1.50;0.70;;;6.80;99.90;;;;;;4942024;29;20035;-88
2022/04/08 11:58:30;;;;;;;1.00;0.60;;;6.80;99.90;;;;;;4954607;29;20019;-88
2022/04/08 12:01:00;;;;;;;0.93;0.47;;;7.00;99.90;;;;;;4937677;28;20055;-87
2022/04/08 12:03:30;;;;;;;1.15;1.15;;;7.00;99.90;;;;;;4953914;28;20469;-87
2022/04/08 12:05:56;;;;;;;1.48;1.20;;;7.00;99.90;;;;;;4960405;28;20023;-88
2022/04/08 12:08:22;;;;;;;1.00;0.82;;;7.00;99.90;;;;;;4960398;28;20019;-87
2022/04/08 12:10:55;;;;;;;0.95;0.93;;;7.00;99.90;;;;;;4952047;28;20383;-86
2022/04/08 12:13:29;;;;;;;2.50;1.83;;;7.10;99.90;;;;;;4978205;28;20378;-87
2022/04/08 12:15:57;;;;;;;0.80;0.80;;;7.20;99.90;;;;;;4957219;28;20501;-86
2022/04/08 12:18:25;;;;;;;0.40;0.40;;;7.20;99.90;;;;;;4960297;28;20117;-87
2022/04/08 12:20:59;;;;;;;0.40;0.40;;;7.20;99.90;;;;;;4960664;28;20031;-87
2022/04/08 12:23:27;;;;;;;0.45;0.45;;;7.20;99.90;;;;;;4961238;28;20026;-87
2022/04/08 12:25:54;;;;;;;0.40;0.40;;;7.20;99.90;;;;;;4978643;28;20031;-87
2022/04/08 12:28:31;;;;;;;1.25;0.50;;;7.20;99.90;;;;;;4960780;28;20054;-87
2022/04/08 12:30:57;;;;;;;11.00;7.10;;;7.20;99.90;;;;;;4960840;28;20121;-87
2022/04/08 12:33:23;;;;;;;1.10;0.57;;;7.20;99.90;;;;;;4978738;28;20165;-88
2022/04/08 12:35:49;;;;;;;0.65;0.50;;;7.10;99.90;;;;;;4960721;28;20110;-88
2022/04/08 12:38:22;;;;;;;0.60;0.50;;;7.20;99.90;;;;;;4960503;28;20183;-86
2022/04/08 12:40:47;;;;;;;0.70;0.70;;;7.20;99.90;;;;;;4975177;28;20041;-84
2022/04/08 12:43:13;;;;;;;1.63;0.65;;;7.10;99.90;;;;;;4956767;29;20027;-86
2022/04/08 12:45:39;;;;;;;0.80;0.80;;;7.10;99.90;;;;;;4941946;29;20030;-87
2022/04/08 12:48:06;;;;;;;0.75;0.70;;;7.20;99.90;;;;;;4959900;28;20031;-85
2022/04/08 12:50:32;;;;;;;0.60;0.60;;;7.20;99.90;;;;;;4962153;28;20094;-87
2022/04/08 12:52:58;;;;;;;1.17;0.75;;;7.30;99.90;;;;;;4962027;28;20034;-87
2022/04/08 12:55:24;;;;;;;2.22;0.70;;;7.30;99.90;;;;;;4978444;28;20034;-86
2022/04/08 12:57:50;;;;;;;0.70;0.70;;;7.30;99.90;;;;;;4962771;28;20087;-85
2022/04/08 13:00:16;;;;;;;0.65;0.65;;;7.30;99.90;;;;;;4980007;28;20042;-86
2022/04/08 13:02:43;;;;;;;1.38;0.80;;;7.40;99.90;;;;;;4962351;28;20114;-86
2022/04/08 13:05:09;;;;;;;0.60;0.60;;;7.30;99.90;;;;;;4942802;29;20079;-85
2022/04/08 13:07:35;;;;;;;1.08;0.70;;;7.20;99.90;;;;;;4947908;29;20086;-85